Terminal Aerodrome Forecast
Issued by NWS

Home | Current Version | Previous Version | Text Only | Print | Product List | Glossary On
Versions: 1 2 3 4 5 6 7 8 9 10 11 12 13 14 15 16 17 18 19 20 21 22 23 24 25 26 27 28 29 30 31 32 33 34
000
FTUS45 KBOI 211120
TAFMYL
TAF
KMYL 211120Z 2112/2212 VRB03KT P6SM VCSH FEW008 SCT025 OVC035
      TEMPO 2112/2115 BKN008
     FM212100 VRB05KT P6SM VCSH SCT030 OVC050
     FM220500 VRB04KT 6SM -SN BR OVC015=

USA.gov is the U.S. government's official web portal to all federal, state and local government web resources and services.